Catlin, Indiana
Current Conditions -  °F | °C
As of 2:55 PM on Monday 22 Dec 2014 (Local Time) from K4I7 Reporting Station
Overcast Overcast  
Wind Chill: 36°   Ceiling: 2000
Heat Index: 41°   Visibility: 7mi
Dew Point: 34°   Wind: 7mph
Humidity: 76%   Direction: 120°ESE
Pressure: 29.76"   Gusts: NA
Location:  39.7714°N, 87.1705°W
Report Text: K4I7 221955Z AUTO 12006KT 7SM BKN020 OVC034 05/01 A2976 RMK AO2
Loading
Personal Weather Stations






























Interactive Weather Map New forecast layout! Learn more

10-Day Weather Forecast

Advertisements
Track Severe Weather on mobile